createdAt,value
2023-06-20T00:02:29.837Z,77.46
2023-06-20T00:05:32.777Z,77.49
2023-06-20T00:08:35.503Z,77.32
2023-06-20T00:11:38.251Z,76.96
2023-06-20T00:14:41.011Z,77.33
2023-06-20T00:17:43.831Z,77.42
2023-06-20T00:20:47.661Z,77.53
2023-06-20T00:23:50.456Z,77.51
2023-06-20T00:26:53.225Z,77.01
2023-06-20T00:29:55.998Z,76.54
2023-06-20T00:33:01.844Z,76.37
2023-06-20T00:36:05.137Z,76.41
2023-06-20T00:39:07.872Z,76.81
2023-06-20T00:42:21.473Z,77.05
2023-06-20T00:45:34.869Z,77.30
2023-06-20T00:48:37.926Z,76.64
2023-06-20T00:51:41.074Z,77.05
2023-06-20T00:54:48.243Z,76.73
2023-06-20T00:57:51.390Z,77.54
2023-06-20T01:00:54.150Z,77.57
2023-06-20T01:03:57.629Z,77.42
2023-06-20T01:07:09.384Z,77.45
2023-06-20T01:10:34.824Z,77.45
2023-06-20T01:13:44.679Z,77.41
2023-06-20T01:16:52.716Z,77.56
2023-06-20T01:20:25.102Z,77.70
2023-06-20T01:23:33.835Z,77.41
2023-06-20T01:27:11.413Z,77.80
2023-06-20T01:30:22.053Z,78.02
2023-06-20T01:33:30.332Z,78.18
2023-06-20T01:36:48.408Z,78.49
2023-06-20T01:39:53.187Z,77.94
2023-06-20T01:42:59.752Z,77.59
2023-06-20T01:46:05.981Z,77.63
2023-06-20T01:49:12.599Z,77.92
2023-06-20T01:52:17.807Z,77.69
2023-06-20T01:55:22.424Z,77.74
2023-06-20T01:58:26.779Z,77.81
2023-06-20T02:01:31.586Z,78.30
2023-06-20T02:04:38.580Z,78.81
2023-06-20T02:07:44.602Z,78.02
2023-06-20T02:10:47.881Z,78.12
2023-06-20T02:13:53.069Z,77.88
2023-06-20T02:17:01.993Z,78.12
2023-06-20T02:20:06.299Z,77.69
2023-06-20T02:23:11.354Z,77.52
2023-06-20T02:26:18.652Z,78.08
2023-06-20T02:29:23.626Z,77.97
2023-06-20T02:32:28.017Z,77.72
2023-06-20T02:35:33.674Z,77.77
2023-06-20T02:38:36.537Z,78.72
2023-06-20T02:41:43.120Z,78.53
2023-06-20T02:44:46.032Z,78.51
2023-06-20T02:48:03.911Z,78.38
2023-06-20T02:51:16.820Z,77.99
2023-06-20T02:54:28.007Z,78.25
2023-06-20T02:57:32.695Z,78.39
2023-06-20T03:00:37.583Z,78.73
2023-06-20T03:03:46.639Z,79.02
2023-06-20T03:06:52.476Z,78.73
2023-06-20T03:09:57.144Z,79.25
2023-06-20T03:13:00.700Z,78.39
2023-06-20T03:16:06.029Z,78.70
2023-06-20T03:19:11.869Z,78.63
2023-06-20T03:22:17.233Z,77.91
2023-06-20T03:25:21.046Z,76.62
2023-06-20T03:28:23.826Z,76.77
2023-06-20T03:31:29.458Z,77.68
2023-06-20T03:34:34.490Z,77.81
2023-06-20T03:37:39.276Z,77.91
2023-06-20T03:40:42.073Z,78.44
2023-06-20T03:43:44.786Z,77.38
2023-06-20T03:46:48.555Z,77.40
2023-06-20T03:49:51.515Z,76.86
2023-06-20T03:52:55.094Z,77.18
2023-06-20T03:55:57.975Z,77.01
2023-06-20T03:59:00.862Z,76.73
2023-06-20T04:02:05.295Z,77.42
2023-06-20T04:05:09.737Z,77.83
2023-06-20T04:08:14.541Z,77.15
2023-06-20T04:11:17.484Z,77.42
2023-06-20T04:14:21.585Z,77.32
2023-06-20T04:17:24.387Z,75.83
2023-06-20T04:20:27.321Z,75.16
2023-06-20T04:23:30.155Z,74.79
2023-06-20T04:26:32.954Z,74.10
2023-06-20T04:29:35.819Z,73.63
2023-06-20T04:32:39.022Z,73.26
2023-06-20T04:35:42.734Z,73.25
2023-06-20T04:38:48.492Z,73.66
2023-06-20T04:41:51.611Z,73.37
2023-06-20T04:44:54.755Z,74.56
2023-06-20T04:47:58.672Z,73.47
2023-06-20T04:51:01.499Z,72.67
2023-06-20T04:54:04.348Z,72.03
2023-06-20T04:57:07.128Z,71.43
2023-06-20T05:00:15.453Z,72.46
2023-06-20T05:03:21.167Z,72.42
2023-06-20T05:06:23.992Z,71.58
2023-06-20T05:09:26.683Z,71.10
2023-06-20T05:12:29.481Z,71.49
2023-06-20T05:15:32.272Z,72.17
2023-06-20T05:18:35.999Z,71.64
2023-06-20T05:21:38.759Z,71.10
2023-06-20T05:24:41.574Z,70.23
2023-06-20T05:27:44.440Z,71.91
2023-06-20T05:30:47.164Z,71.60
2023-06-20T05:33:49.984Z,70.91
2023-06-20T05:36:52.751Z,69.61
2023-06-20T05:39:56.582Z,69.00
2023-06-20T05:43:00.364Z,69.34
2023-06-20T05:46:03.121Z,69.10
2023-06-20T05:49:11.143Z,69.14
2023-06-20T05:52:14.210Z,68.79
2023-06-20T05:55:16.892Z,68.24
2023-06-20T05:58:20.536Z,67.27
2023-06-20T06:01:23.292Z,66.67
2023-06-20T06:04:29.337Z,67.06
2023-06-20T06:07:32.257Z,66.31
2023-06-20T06:10:36.047Z,64.70
2023-06-20T06:13:40.093Z,63.93
2023-06-20T06:16:43.348Z,64.81
2023-06-20T06:19:46.085Z,62.13
2023-06-20T06:22:48.988Z,63.57
2023-06-20T06:25:53.442Z,63.13
2023-06-20T06:28:56.257Z,62.43
2023-06-20T06:32:00.706Z,63.65
2023-06-20T06:35:05.396Z,61.92
2023-06-20T06:38:08.666Z,62.00
2023-06-20T06:41:11.546Z,59.84
2023-06-20T06:44:14.474Z,58.74
2023-06-20T06:47:17.254Z,59.28
2023-06-20T06:50:20.073Z,57.54
2023-06-20T06:53:22.878Z,54.14
2023-06-20T06:56:25.648Z,54.42
2023-06-20T06:59:28.429Z,52.39
2023-06-20T07:02:31.216Z,52.67
2023-06-20T07:05:34.037Z,52.52
2023-06-20T07:08:36.717Z,52.36
2023-06-20T07:11:39.482Z,52.44
2023-06-20T07:14:42.253Z,52.29
2023-06-20T07:17:45.026Z,53.39
2023-06-20T07:20:47.811Z,51.00
2023-06-20T07:23:50.582Z,53.47
2023-06-20T07:26:53.382Z,56.30
2023-06-20T07:29:56.785Z,53.60
2023-06-20T07:32:59.651Z,54.68
2023-06-20T07:36:02.419Z,56.21
2023-06-20T07:39:05.211Z,56.23
2023-06-20T07:42:08.333Z,52.75
2023-06-20T07:45:11.231Z,53.57
2023-06-20T07:48:13.954Z,54.08
2023-06-20T07:51:17.262Z,53.13
2023-06-20T07:54:19.995Z,53.30
2023-06-20T07:57:22.734Z,54.38
2023-06-20T08:00:26.550Z,53.60
2023-06-20T08:03:29.459Z,52.05
2023-06-20T08:06:32.480Z,53.12
2023-06-20T08:09:35.308Z,51.19
2023-06-20T08:12:38.936Z,49.27
2023-06-20T08:15:41.663Z,51.38
2023-06-20T08:18:44.561Z,49.67
2023-06-20T08:21:47.261Z,51.20
2023-06-20T08:24:49.972Z,48.00
2023-06-20T08:28:02.087Z,48.24
2023-06-20T08:31:13.268Z,48.34
2023-06-20T08:34:16.054Z,48.18
2023-06-20T08:37:19.041Z,49.25
2023-06-20T08:40:21.863Z,48.37
2023-06-20T08:43:24.645Z,48.25
2023-06-20T08:46:27.587Z,46.47
2023-06-20T08:49:30.428Z,46.99
2023-06-20T08:52:41.001Z,44.03
2023-06-20T08:55:44.597Z,47.34
2023-06-20T08:58:47.786Z,46.46
2023-06-20T09:01:50.974Z,45.95
2023-06-20T09:05:04.281Z,43.75
2023-06-20T09:08:07.995Z,44.41
2023-06-20T09:11:12.640Z,44.96
2023-06-20T09:14:17.133Z,44.68
2023-06-20T09:17:23.487Z,44.28
2023-06-20T09:20:28.163Z,42.56
2023-06-20T09:23:32.936Z,42.49
2023-06-20T09:26:36.725Z,41.30
2023-06-20T09:29:53.104Z,39.11
2023-06-20T09:32:56.003Z,38.15
2023-06-20T09:36:18.333Z,40.10
2023-06-20T09:39:24.468Z,38.76
2023-06-20T09:42:27.251Z,39.75
2023-06-20T09:45:30.098Z,36.60
2023-06-20T09:48:35.478Z,36.28
2023-06-20T09:51:54.010Z,35.57
2023-06-20T09:54:59.670Z,36.28
2023-06-20T09:58:05.295Z,36.50
2023-06-20T10:01:14.558Z,37.64
2023-06-20T10:04:19.091Z,37.06
2023-06-20T10:07:23.072Z,37.59
2023-06-20T10:10:26.356Z,36.90
2023-06-20T10:13:30.840Z,36.63
2023-06-20T10:16:33.639Z,37.20
2023-06-20T10:19:49.033Z,37.43
2023-06-20T10:22:51.793Z,37.77
2023-06-20T10:25:59.319Z,36.51
2023-06-20T10:29:03.253Z,36.62
2023-06-20T10:32:07.651Z,37.26
2023-06-20T10:35:16.850Z,36.51
2023-06-20T10:38:19.858Z,36.92
2023-06-20T10:41:25.087Z,38.05
2023-06-20T10:44:30.724Z,37.48
2023-06-20T10:47:35.089Z,36.68
2023-06-20T10:50:40.257Z,35.75
2023-06-20T10:53:43.292Z,36.00
2023-06-20T10:56:47.904Z,34.81
2023-06-20T10:59:51.790Z,32.58
2023-06-20T11:02:56.300Z,32.24
2023-06-20T11:05:59.620Z,32.30
2023-06-20T11:09:02.649Z,33.61
2023-06-20T11:12:11.395Z,34.24
2023-06-20T11:15:29.691Z,32.17
2023-06-20T11:18:32.580Z,31.88
2023-06-20T11:21:36.623Z,33.27
2023-06-20T11:24:39.373Z,33.10
2023-06-20T11:27:42.134Z,32.92
2023-06-20T11:30:52.248Z,32.34
2023-06-20T11:34:11.199Z,31.92
2023-06-20T11:37:14.809Z,32.09
2023-06-20T11:40:17.703Z,32.78
2023-06-20T11:43:21.476Z,32.76
2023-06-20T11:46:24.285Z,33.06
2023-06-20T11:49:31.758Z,32.97
2023-06-20T11:52:36.047Z,33.27
2023-06-20T11:55:52.344Z,31.72
2023-06-20T11:58:55.253Z,32.88
2023-06-20T12:01:59.033Z,33.23
2023-06-20T12:05:04.442Z,32.25
2023-06-20T12:08:08.738Z,32.33
2023-06-20T12:11:14.492Z,32.75
2023-06-20T12:14:18.037Z,33.85
2023-06-20T12:17:20.856Z,33.88
2023-06-20T12:20:34.603Z,33.52
2023-06-20T12:23:41.453Z,33.48
2023-06-20T12:26:48.441Z,33.36
2023-06-20T12:29:51.326Z,33.21
2023-06-20T12:32:56.856Z,32.86
2023-06-20T12:36:00.102Z,33.04
2023-06-20T12:39:04.809Z,33.14
2023-06-20T12:42:07.915Z,34.01
2023-06-20T12:45:12.158Z,33.68
2023-06-20T12:48:15.271Z,33.61
2023-06-20T12:51:18.542Z,33.49
2023-06-20T12:54:21.294Z,33.56
2023-06-20T12:57:27.001Z,33.45
2023-06-20T13:00:30.560Z,32.57
2023-06-20T13:03:33.544Z,31.17
2023-06-20T13:06:36.739Z,31.49
2023-06-20T13:09:40.214Z,32.34
2023-06-20T13:12:42.973Z,32.84
2023-06-20T13:15:45.814Z,30.76
2023-06-20T13:18:48.645Z,29.73
2023-06-20T13:21:51.549Z,30.58
2023-06-20T13:24:54.317Z,29.65
2023-06-20T13:27:57.206Z,31.71
2023-06-20T13:30:59.912Z,31.38
2023-06-20T13:34:03.089Z,29.65
2023-06-20T13:37:06.241Z,29.84
2023-06-20T13:40:10.975Z,28.76
2023-06-20T13:43:13.732Z,28.34
2023-06-20T13:46:17.019Z,28.53
2023-06-20T13:49:20.173Z,27.72
2023-06-20T13:52:24.282Z,27.86
2023-06-20T13:55:27.185Z,27.45
2023-06-20T13:58:29.919Z,27.23
2023-06-20T14:01:36.024Z,28.39
2023-06-20T14:04:40.084Z,27.82
2023-06-20T14:07:43.753Z,27.49
2023-06-20T14:10:46.530Z,26.80
2023-06-20T14:13:49.315Z,28.01
2023-06-20T14:16:52.130Z,27.30
2023-06-20T14:19:55.003Z,26.44
2023-06-20T14:22:57.849Z,26.71
2023-06-20T14:26:00.637Z,26.86
2023-06-20T14:29:04.005Z,25.94
2023-06-20T14:32:08.069Z,26.87
2023-06-20T14:35:10.866Z,26.87
2023-06-20T14:38:14.654Z,26.72
2023-06-20T14:41:17.694Z,26.54
2023-06-20T14:44:20.572Z,26.50
2023-06-20T14:47:23.885Z,27.54
2023-06-20T14:50:39.119Z,26.99
2023-06-20T14:53:49.388Z,27.07
2023-06-20T14:56:52.228Z,26.41
2023-06-20T14:59:55.006Z,26.05
2023-06-20T15:02:57.861Z,26.52
2023-06-20T15:06:00.814Z,27.59
2023-06-20T15:09:03.906Z,27.20
2023-06-20T15:12:07.337Z,29.11
2023-06-20T15:15:10.374Z,30.31
2023-06-20T15:18:13.411Z,29.53
2023-06-20T15:21:16.180Z,30.36
2023-06-20T15:24:19.038Z,31.84
2023-06-20T15:27:21.816Z,32.10
2023-06-20T15:30:27.281Z,33.47
2023-06-20T15:33:30.482Z,33.71
2023-06-20T15:36:33.688Z,34.05
2023-06-20T15:39:36.427Z,34.76
2023-06-20T15:42:39.586Z,34.06
2023-06-20T15:45:42.579Z,35.20
2023-06-20T15:48:57.174Z,35.86
2023-06-20T15:52:00.492Z,35.84
2023-06-20T15:55:03.526Z,36.46
2023-06-20T15:58:06.336Z,36.29
2023-06-20T16:01:09.593Z,38.83
2023-06-20T16:04:12.500Z,39.20
2023-06-20T16:07:16.383Z,38.67
2023-06-20T16:10:19.222Z,37.68
2023-06-20T16:13:21.939Z,37.20
2023-06-20T16:16:25.630Z,36.01
2023-06-20T16:19:28.523Z,35.22
2023-06-20T16:22:31.326Z,32.87
2023-06-20T16:25:34.580Z,33.16
2023-06-20T16:28:37.817Z,32.48
2023-06-20T16:31:42.667Z,31.82
2023-06-20T16:34:45.604Z,31.77
2023-06-20T16:37:49.133Z,32.13
2023-06-20T16:40:52.246Z,31.98
2023-06-20T16:43:55.064Z,32.91
2023-06-20T16:46:58.883Z,32.71
2023-06-20T16:50:01.799Z,32.57
2023-06-20T16:53:05.373Z,32.19
2023-06-20T16:56:08.272Z,32.64
2023-06-20T16:59:11.096Z,32.78
2023-06-20T17:02:13.937Z,32.61
2023-06-20T17:05:16.864Z,34.61
2023-06-20T17:08:19.590Z,35.62
2023-06-20T17:11:23.353Z,36.60
2023-06-20T17:14:28.054Z,37.55
2023-06-20T17:17:30.967Z,39.12
2023-06-20T17:20:34.032Z,40.12
2023-06-20T17:23:39.810Z,41.29
2023-06-20T17:26:42.811Z,42.00
2023-06-20T17:29:45.524Z,42.54
2023-06-20T17:32:48.591Z,42.76
2023-06-20T17:35:51.357Z,42.96
2023-06-20T17:38:54.347Z,43.39
2023-06-20T17:41:58.132Z,43.09
2023-06-20T17:45:01.840Z,43.04
2023-06-20T17:48:05.036Z,43.21
2023-06-20T17:51:07.787Z,42.59
2023-06-20T17:54:10.536Z,43.19
2023-06-20T17:57:13.563Z,43.10
2023-06-20T18:00:16.653Z,43.76
2023-06-20T18:03:19.705Z,43.25
2023-06-20T18:06:24.508Z,43.85
2023-06-20T18:09:27.394Z,44.06
2023-06-20T18:12:30.198Z,44.47
2023-06-20T18:15:32.924Z,45.24
2023-06-20T18:18:38.699Z,46.69
2023-06-20T18:21:41.706Z,49.83
2023-06-20T18:24:44.494Z,51.04
2023-06-20T18:27:47.372Z,52.75
2023-06-20T18:30:50.083Z,53.85
2023-06-20T18:33:52.769Z,54.59
2023-06-20T18:36:55.560Z,55.21
2023-06-20T18:39:58.281Z,55.87
2023-06-20T18:43:01.191Z,55.68
2023-06-20T18:46:04.497Z,56.80
2023-06-20T18:49:07.565Z,58.22
2023-06-20T18:52:10.693Z,59.09
2023-06-20T18:55:13.685Z,59.54
2023-06-20T18:58:16.834Z,60.64
2023-06-20T19:01:19.862Z,62.09
2023-06-20T19:04:23.153Z,62.60
2023-06-20T19:07:26.482Z,62.10
2023-06-20T19:10:29.389Z,61.13
2023-06-20T19:13:32.545Z,61.83
2023-06-20T19:16:35.463Z,62.76
2023-06-20T19:19:38.173Z,63.65
2023-06-20T19:22:41.124Z,65.15
2023-06-20T19:25:43.952Z,64.90
2023-06-20T19:28:47.325Z,65.75
2023-06-20T19:31:50.666Z,66.75
2023-06-20T19:34:53.637Z,67.18
2023-06-20T19:37:56.587Z,68.22
2023-06-20T19:41:00.842Z,68.56
2023-06-20T19:44:03.665Z,68.44
2023-06-20T19:47:06.814Z,69.35
2023-06-20T19:50:10.169Z,69.23
2023-06-20T19:53:13.004Z,69.11
2023-06-20T19:56:15.832Z,69.76
2023-06-20T19:59:19.204Z,70.14
2023-06-20T20:02:25.309Z,70.37
2023-06-20T20:05:28.347Z,71.21
2023-06-20T20:08:31.264Z,71.17
2023-06-20T20:11:34.104Z,71.69
2023-06-20T20:14:36.838Z,72.86
2023-06-20T20:17:40.016Z,73.03
2023-06-20T20:20:42.726Z,73.54
2023-06-20T20:23:45.658Z,73.58
2023-06-20T20:26:53.909Z,73.62
2023-06-20T20:29:57.041Z,73.44
2023-06-20T20:32:59.982Z,73.70
2023-06-20T20:36:02.776Z,73.49
2023-06-20T20:39:05.797Z,73.33
2023-06-20T20:42:08.641Z,73.46
2023-06-20T20:45:11.939Z,73.86
2023-06-20T20:48:14.680Z,74.79
2023-06-20T20:51:17.456Z,74.84
2023-06-20T20:54:20.221Z,75.24
2023-06-20T20:57:23.300Z,75.91
2023-06-20T21:00:26.077Z,75.71
2023-06-20T21:03:29.692Z,75.41
2023-06-20T21:06:32.705Z,75.54
2023-06-20T21:09:35.551Z,75.86
2023-06-20T21:12:38.357Z,75.55
2023-06-20T21:15:41.092Z,75.25
2023-06-20T21:18:43.852Z,74.99
2023-06-20T21:21:46.622Z,75.37
2023-06-20T21:24:49.407Z,75.65
2023-06-20T21:27:52.172Z,76.49
2023-06-20T21:30:54.918Z,76.44
2023-06-20T21:34:01.448Z,76.19
2023-06-20T21:37:05.501Z,75.81
2023-06-20T21:40:10.668Z,75.80
2023-06-20T21:43:13.858Z,75.60
2023-06-20T21:46:16.670Z,75.67
2023-06-20T21:49:21.634Z,75.88
2023-06-20T21:52:24.385Z,75.83
2023-06-20T21:55:27.087Z,75.69
2023-06-20T21:58:30.110Z,76.90
2023-06-20T22:01:32.847Z,76.84
2023-06-20T22:04:35.927Z,76.80
2023-06-20T22:07:38.799Z,77.42
2023-06-20T22:10:55.364Z,77.55
2023-06-20T22:14:01.430Z,77.44
2023-06-20T22:17:04.729Z,77.57
2023-06-20T22:20:11.277Z,77.94
2023-06-20T22:23:14.063Z,77.53
2023-06-20T22:26:16.847Z,77.13
2023-06-20T22:29:20.411Z,76.87
2023-06-20T22:32:23.855Z,76.72
2023-06-20T22:35:26.748Z,76.84
2023-06-20T22:38:31.844Z,76.97
2023-06-20T22:41:34.829Z,76.74
2023-06-20T22:44:37.632Z,76.19
2023-06-20T22:47:40.443Z,75.99
2023-06-20T22:50:45.704Z,76.02
2023-06-20T22:53:49.007Z,76.15
2023-06-20T22:56:52.927Z,76.53
2023-06-20T22:59:55.730Z,76.91
2023-06-20T23:02:58.551Z,77.32
2023-06-20T23:06:01.332Z,77.60
2023-06-20T23:09:05.841Z,77.91
2023-06-20T23:12:10.607Z,77.94
2023-06-20T23:15:13.671Z,77.96
2023-06-20T23:18:22.975Z,77.86
2023-06-20T23:21:26.174Z,78.52
2023-06-20T23:24:28.953Z,79.86
2023-06-20T23:27:36.053Z,80.37
2023-06-20T23:30:38.976Z,80.27
2023-06-20T23:33:41.896Z,80.42
2023-06-20T23:36:44.623Z,80.60
2023-06-20T23:39:48.676Z,80.65
2023-06-20T23:42:51.416Z,81.07
2023-06-20T23:45:54.417Z,80.64
2023-06-20T23:48:57.162Z,80.51
2023-06-20T23:51:59.925Z,80.33
2023-06-20T23:55:03.136Z,80.09
2023-06-20T23:58:06.577Z,80.24
